sensor_id;sensor_type;location;lat;lon;timestamp;P1;durP1;ratioP1;P2;durP2;ratioP2
15238;SDS011;7722;53.274;9.500;2023-03-12T00:02:13;1.77;;;1.77;;
15238;SDS011;7722;53.274;9.500;2023-03-12T00:04:40;1.87;;;1.87;;
15238;SDS011;7722;53.274;9.500;2023-03-12T00:07:07;1.67;;;1.67;;
15238;SDS011;7722;53.274;9.500;2023-03-12T00:09:35;1.60;;;1.60;;
15238;SDS011;7722;53.274;9.500;2023-03-12T00:12:02;1.90;;;1.90;;
15238;SDS011;7722;53.274;9.500;2023-03-12T00:14:31;1.60;;;1.60;;
15238;SDS011;7722;53.274;9.500;2023-03-12T00:16:58;1.90;;;1.90;;
15238;SDS011;7722;53.274;9.500;2023-03-12T00:19:25;1.50;;;1.50;;
15238;SDS011;7722;53.274;9.500;2023-03-12T00:21:53;1.50;;;1.50;;
15238;SDS011;7722;53.274;9.500;2023-03-12T00:24:20;1.40;;;1.40;;
15238;SDS011;7722;53.274;9.500;2023-03-12T00:26:47;1.63;;;1.63;;
15238;SDS011;7722;53.274;9.500;2023-03-12T00:29:14;1.80;;;1.80;;
15238;SDS011;7722;53.274;9.500;2023-03-12T00:31:42;1.40;;;1.40;;
15238;SDS011;7722;53.274;9.500;2023-03-12T00:34:09;1.90;;;1.90;;
15238;SDS011;7722;53.274;9.500;2023-03-12T00:36:36;1.83;;;1.83;;
15238;SDS011;7722;53.274;9.500;2023-03-12T00:39:04;1.70;;;1.70;;
15238;SDS011;7722;53.274;9.500;2023-03-12T00:41:32;1.57;;;1.57;;
15238;SDS011;7722;53.274;9.500;2023-03-12T00:43:59;1.60;;;1.60;;
15238;SDS011;7722;53.274;9.500;2023-03-12T00:46:27;2.10;;;2.10;;
15238;SDS011;7722;53.274;9.500;2023-03-12T00:48:55;1.60;;;1.60;;
15238;SDS011;7722;53.274;9.500;2023-03-12T00:51:22;1.70;;;1.70;;
15238;SDS011;7722;53.274;9.500;2023-03-12T00:53:49;1.60;;;1.60;;
15238;SDS011;7722;53.274;9.500;2023-03-12T00:56:17;1.67;;;1.67;;
15238;SDS011;7722;53.274;9.500;2023-03-12T00:58:45;1.73;;;1.73;;
15238;SDS011;7722;53.274;9.500;2023-03-12T01:03:51;1.73;;;1.73;;
15238;SDS011;7722;53.274;9.500;2023-03-12T01:06:20;1.77;;;1.77;;
15238;SDS011;7722;53.274;9.500;2023-03-12T01:08:47;1.70;;;1.70;;
15238;SDS011;7722;53.274;9.500;2023-03-12T01:11:14;1.67;;;1.67;;
15238;SDS011;7722;53.274;9.500;2023-03-12T01:13:43;1.83;;;1.83;;
15238;SDS011;7722;53.274;9.500;2023-03-12T01:16:11;1.77;;;1.77;;
15238;SDS011;7722;53.274;9.500;2023-03-12T01:18:38;1.50;;;1.50;;
15238;SDS011;7722;53.274;9.500;2023-03-12T01:21:05;1.60;;;1.60;;
15238;SDS011;7722;53.274;9.500;2023-03-12T01:23:33;1.90;;;1.90;;
15238;SDS011;7722;53.274;9.500;2023-03-12T01:26:00;1.70;;;1.70;;
15238;SDS011;7722;53.274;9.500;2023-03-12T01:28:27;1.70;;;1.70;;
15238;SDS011;7722;53.274;9.500;2023-03-12T01:30:54;1.77;;;1.77;;
15238;SDS011;7722;53.274;9.500;2023-03-12T01:33:21;1.83;;;1.83;;
15238;SDS011;7722;53.274;9.500;2023-03-12T01:35:48;1.57;;;1.57;;
15238;SDS011;7722;53.274;9.500;2023-03-12T01:38:15;1.50;;;1.50;;
15238;SDS011;7722;53.274;9.500;2023-03-12T01:40:46;1.50;;;1.50;;
15238;SDS011;7722;53.274;9.500;2023-03-12T01:43:21;1.50;;;1.50;;
15238;SDS011;7722;53.274;9.500;2023-03-12T01:46:05;1.60;;;1.60;;
15238;SDS011;7722;53.274;9.500;2023-03-12T01:49:01;1.63;;;1.63;;
15238;SDS011;7722;53.274;9.500;2023-03-12T01:51:32;1.83;;;1.83;;
15238;SDS011;7722;53.274;9.500;2023-03-12T01:54:04;1.57;;;1.57;;
15238;SDS011;7722;53.274;9.500;2023-03-12T01:56:35;1.73;;;1.73;;
15238;SDS011;7722;53.274;9.500;2023-03-12T01:59:06;1.40;;;1.40;;
15238;SDS011;7722;53.274;9.500;2023-03-12T02:01:36;1.70;;;1.70;;
15238;SDS011;7722;53.274;9.500;2023-03-12T02:04:03;2.00;;;2.00;;
15238;SDS011;7722;53.274;9.500;2023-03-12T02:06:33;1.80;;;1.80;;
15238;SDS011;7722;53.274;9.500;2023-03-12T02:09:05;2.00;;;2.00;;
15238;SDS011;7722;53.274;9.500;2023-03-12T02:11:32;1.60;;;1.60;;
15238;SDS011;7722;53.274;9.500;2023-03-12T02:14:01;1.80;;;1.80;;
15238;SDS011;7722;53.274;9.500;2023-03-12T02:16:28;1.70;;;1.70;;
15238;SDS011;7722;53.274;9.500;2023-03-12T02:18:56;1.80;;;1.80;;
15238;SDS011;7722;53.274;9.500;2023-03-12T02:21:27;1.83;;;1.83;;
15238;SDS011;7722;53.274;9.500;2023-03-12T02:24:00;1.87;;;1.87;;
15238;SDS011;7722;53.274;9.500;2023-03-12T02:26:33;1.83;;;1.83;;
15238;SDS011;7722;53.274;9.500;2023-03-12T02:29:01;1.70;;;1.70;;
15238;SDS011;7722;53.274;9.500;2023-03-12T02:31:31;1.73;;;1.73;;
15238;SDS011;7722;53.274;9.500;2023-03-12T02:34:02;1.70;;;1.70;;
15238;SDS011;7722;53.274;9.500;2023-03-12T02:36:29;2.07;;;2.07;;
15238;SDS011;7722;53.274;9.500;2023-03-12T02:38:56;1.50;;;1.50;;
15238;SDS011;7722;53.274;9.500;2023-03-12T02:41:24;1.90;;;1.90;;
15238;SDS011;7722;53.274;9.500;2023-03-12T02:43:57;1.70;;;1.70;;
15238;SDS011;7722;53.274;9.500;2023-03-12T02:46:28;1.80;;;1.80;;
15238;SDS011;7722;53.274;9.500;2023-03-12T02:48:57;2.10;;;2.10;;
15238;SDS011;7722;53.274;9.500;2023-03-12T02:51:24;1.73;;;1.73;;
15238;SDS011;7722;53.274;9.500;2023-03-12T02:53:51;1.80;;;1.80;;
15238;SDS011;7722;53.274;9.500;2023-03-12T02:56:19;1.70;;;1.70;;
15238;SDS011;7722;53.274;9.500;2023-03-12T02:58:47;2.00;;;2.00;;
15238;SDS011;7722;53.274;9.500;2023-03-12T03:01:16;1.60;;;1.60;;
15238;SDS011;7722;53.274;9.500;2023-03-12T03:03:44;1.83;;;1.83;;
15238;SDS011;7722;53.274;9.500;2023-03-12T03:06:12;1.97;;;1.97;;
15238;SDS011;7722;53.274;9.500;2023-03-12T03:08:40;2.10;;;2.10;;
15238;SDS011;7722;53.274;9.500;2023-03-12T03:11:07;1.67;;;1.67;;
15238;SDS011;7722;53.274;9.500;2023-03-12T03:13:35;1.63;;;1.63;;
15238;SDS011;7722;53.274;9.500;2023-03-12T03:16:02;2.10;;;2.10;;
15238;SDS011;7722;53.274;9.500;2023-03-12T03:18:31;2.17;;;2.17;;
15238;SDS011;7722;53.274;9.500;2023-03-12T03:20:59;1.70;;;1.70;;
15238;SDS011;7722;53.274;9.500;2023-03-12T03:23:28;1.60;;;1.60;;
15238;SDS011;7722;53.274;9.500;2023-03-12T03:25:56;1.83;;;1.83;;
15238;SDS011;7722;53.274;9.500;2023-03-12T03:28:24;1.70;;;1.70;;
15238;SDS011;7722;53.274;9.500;2023-03-12T03:30:52;1.77;;;1.77;;
15238;SDS011;7722;53.274;9.500;2023-03-12T03:33:22;1.77;;;1.77;;
15238;SDS011;7722;53.274;9.500;2023-03-12T03:35:51;1.77;;;1.77;;
15238;SDS011;7722;53.274;9.500;2023-03-12T03:38:19;1.80;;;1.80;;
15238;SDS011;7722;53.274;9.500;2023-03-12T03:40:46;1.80;;;1.80;;
15238;SDS011;7722;53.274;9.500;2023-03-12T03:43:13;1.60;;;1.60;;
15238;SDS011;7722;53.274;9.500;2023-03-12T03:45:40;1.87;;;1.87;;
15238;SDS011;7722;53.274;9.500;2023-03-12T03:48:08;1.83;;;1.83;;
15238;SDS011;7722;53.274;9.500;2023-03-12T03:50:36;1.80;;;1.80;;
15238;SDS011;7722;53.274;9.500;2023-03-12T03:53:04;3.40;;;3.30;;
15238;SDS011;7722;53.274;9.500;2023-03-12T03:55:34;2.00;;;2.00;;
15238;SDS011;7722;53.274;9.500;2023-03-12T03:58:01;1.63;;;1.63;;
15238;SDS011;7722;53.274;9.500;2023-03-12T04:00:29;2.00;;;2.00;;
15238;SDS011;7722;53.274;9.500;2023-03-12T04:02:56;1.67;;;1.67;;
15238;SDS011;7722;53.274;9.500;2023-03-12T04:05:23;1.70;;;1.70;;
15238;SDS011;7722;53.274;9.500;2023-03-12T04:07:50;1.60;;;1.60;;
15238;SDS011;7722;53.274;9.500;2023-03-12T04:10:19;1.70;;;1.70;;
15238;SDS011;7722;53.274;9.500;2023-03-12T04:12:47;1.80;;;1.80;;
15238;SDS011;7722;53.274;9.500;2023-03-12T04:15:14;2.00;;;2.00;;
15238;SDS011;7722;53.274;9.500;2023-03-12T04:17:42;1.93;;;1.93;;
15238;SDS011;7722;53.274;9.500;2023-03-12T04:20:09;2.00;;;2.00;;
15238;SDS011;7722;53.274;9.500;2023-03-12T04:22:37;2.00;;;2.00;;
15238;SDS011;7722;53.274;9.500;2023-03-12T04:25:04;1.80;;;1.80;;
15238;SDS011;7722;53.274;9.500;2023-03-12T04:27:33;1.70;;;1.70;;
15238;SDS011;7722;53.274;9.500;2023-03-12T04:30:00;1.70;;;1.70;;
15238;SDS011;7722;53.274;9.500;2023-03-12T04:32:27;1.90;;;1.90;;
15238;SDS011;7722;53.274;9.500;2023-03-12T04:34:54;2.07;;;2.07;;
15238;SDS011;7722;53.274;9.500;2023-03-12T04:37:21;1.57;;;1.57;;
15238;SDS011;7722;53.274;9.500;2023-03-12T04:39:48;1.80;;;1.80;;
15238;SDS011;7722;53.274;9.500;2023-03-12T04:42:15;2.00;;;2.00;;
15238;SDS011;7722;53.274;9.500;2023-03-12T04:44:44;2.03;;;2.03;;
15238;SDS011;7722;53.274;9.500;2023-03-12T04:47:11;1.87;;;1.87;;
15238;SDS011;7722;53.274;9.500;2023-03-12T04:49:38;1.70;;;1.70;;
15238;SDS011;7722;53.274;9.500;2023-03-12T04:52:05;1.60;;;1.60;;
15238;SDS011;7722;53.274;9.500;2023-03-12T04:54:32;1.90;;;1.90;;
15238;SDS011;7722;53.274;9.500;2023-03-12T04:56:59;1.93;;;1.93;;
15238;SDS011;7722;53.274;9.500;2023-03-12T04:59:26;2.00;;;2.00;;
15238;SDS011;7722;53.274;9.500;2023-03-12T05:01:55;1.70;;;1.70;;
15238;SDS011;7722;53.274;9.500;2023-03-12T05:04:22;1.70;;;1.70;;
15238;SDS011;7722;53.274;9.500;2023-03-12T05:06:48;1.70;;;1.70;;
15238;SDS011;7722;53.274;9.500;2023-03-12T05:09:15;2.00;;;2.00;;
15238;SDS011;7722;53.274;9.500;2023-03-12T05:11:42;1.80;;;1.80;;
15238;SDS011;7722;53.274;9.500;2023-03-12T05:14:10;1.73;;;1.73;;
15238;SDS011;7722;53.274;9.500;2023-03-12T05:16:37;1.70;;;1.70;;
15238;SDS011;7722;53.274;9.500;2023-03-12T05:19:06;1.90;;;1.90;;
15238;SDS011;7722;53.274;9.500;2023-03-12T05:21:33;1.60;;;1.60;;
15238;SDS011;7722;53.274;9.500;2023-03-12T05:24:00;1.80;;;1.80;;
15238;SDS011;7722;53.274;9.500;2023-03-12T05:26:28;1.87;;;1.87;;
15238;SDS011;7722;53.274;9.500;2023-03-12T05:28:57;1.80;;;1.80;;
15238;SDS011;7722;53.274;9.500;2023-03-12T05:31:24;1.67;;;1.67;;
15238;SDS011;7722;53.274;9.500;2023-03-12T05:33:51;1.77;;;1.77;;
15238;SDS011;7722;53.274;9.500;2023-03-12T05:36:20;2.00;;;2.00;;
15238;SDS011;7722;53.274;9.500;2023-03-12T05:38:47;2.00;;;2.00;;
15238;SDS011;7722;53.274;9.500;2023-03-12T05:41:16;1.57;;;1.57;;
15238;SDS011;7722;53.274;9.500;2023-03-12T05:43:44;1.90;;;1.90;;
15238;SDS011;7722;53.274;9.500;2023-03-12T05:46:11;1.87;;;1.87;;
15238;SDS011;7722;53.274;9.500;2023-03-12T05:48:39;1.87;;;1.87;;
15238;SDS011;7722;53.274;9.500;2023-03-12T05:51:07;1.73;;;1.73;;
15238;SDS011;7722;53.274;9.500;2023-03-12T05:53:35;2.00;;;2.00;;
15238;SDS011;7722;53.274;9.500;2023-03-12T05:56:03;2.00;;;2.00;;
15238;SDS011;7722;53.274;9.500;2023-03-12T05:58:31;1.73;;;1.73;;
15238;SDS011;7722;53.274;9.500;2023-03-12T06:00:59;1.73;;;1.73;;
15238;SDS011;7722;53.274;9.500;2023-03-12T06:03:26;1.83;;;1.83;;
15238;SDS011;7722;53.274;9.500;2023-03-12T06:05:53;1.60;;;1.60;;
15238;SDS011;7722;53.274;9.500;2023-03-12T06:08:21;1.80;;;1.80;;
15238;SDS011;7722;53.274;9.500;2023-03-12T06:10:50;1.83;;;1.83;;
15238;SDS011;7722;53.274;9.500;2023-03-12T06:13:19;1.90;;;1.90;;
15238;SDS011;7722;53.274;9.500;2023-03-12T06:15:46;1.70;;;1.70;;
15238;SDS011;7722;53.274;9.500;2023-03-12T06:18:13;1.70;;;1.70;;
15238;SDS011;7722;53.274;9.500;2023-03-12T06:20:41;1.67;;;1.67;;
15238;SDS011;7722;53.274;9.500;2023-03-12T06:23:08;1.80;;;1.80;;
15238;SDS011;7722;53.274;9.500;2023-03-12T06:25:35;1.60;;;1.60;;
15238;SDS011;7722;53.274;9.500;2023-03-12T06:28:04;1.60;;;1.60;;
15238;SDS011;7722;53.274;9.500;2023-03-12T06:30:32;2.00;;;2.00;;
15238;SDS011;7722;53.274;9.500;2023-03-12T06:32:59;1.60;;;1.60;;
15238;SDS011;7722;53.274;9.500;2023-03-12T06:35:28;1.80;;;1.80;;
15238;SDS011;7722;53.274;9.500;2023-03-12T06:37:55;1.50;;;1.50;;
15238;SDS011;7722;53.274;9.500;2023-03-12T06:40:22;1.80;;;1.80;;
15238;SDS011;7722;53.274;9.500;2023-03-12T06:42:49;1.80;;;1.80;;
15238;SDS011;7722;53.274;9.500;2023-03-12T06:45:18;1.80;;;1.80;;
15238;SDS011;7722;53.274;9.500;2023-03-12T06:47:45;1.50;;;1.50;;
15238;SDS011;7722;53.274;9.500;2023-03-12T06:50:12;1.70;;;1.70;;
15238;SDS011;7722;53.274;9.500;2023-03-12T06:52:40;1.60;;;1.60;;
15238;SDS011;7722;53.274;9.500;2023-03-12T06:55:07;1.93;;;1.93;;
15238;SDS011;7722;53.274;9.500;2023-03-12T06:57:34;1.90;;;1.90;;
15238;SDS011;7722;53.274;9.500;2023-03-12T07:00:02;1.70;;;1.70;;
15238;SDS011;7722;53.274;9.500;2023-03-12T07:02:33;1.50;;;1.50;;
15238;SDS011;7722;53.274;9.500;2023-03-12T07:05:01;1.77;;;1.77;;
15238;SDS011;7722;53.274;9.500;2023-03-12T07:07:28;1.83;;;1.83;;
15238;SDS011;7722;53.274;9.500;2023-03-12T07:09:55;1.50;;;1.50;;
15238;SDS011;7722;53.274;9.500;2023-03-12T07:12:22;2.37;;;2.37;;
15238;SDS011;7722;53.274;9.500;2023-03-12T07:14:49;1.87;;;1.87;;
15238;SDS011;7722;53.274;9.500;2023-03-12T07:17:16;1.53;;;1.53;;
15238;SDS011;7722;53.274;9.500;2023-03-12T07:19:44;1.50;;;1.50;;
15238;SDS011;7722;53.274;9.500;2023-03-12T07:22:12;1.60;;;1.60;;
15238;SDS011;7722;53.274;9.500;2023-03-12T07:24:39;1.80;;;1.80;;
15238;SDS011;7722;53.274;9.500;2023-03-12T07:27:06;1.90;;;1.90;;
15238;SDS011;7722;53.274;9.500;2023-03-12T07:29:33;1.43;;;1.43;;
15238;SDS011;7722;53.274;9.500;2023-03-12T07:32:00;1.40;;;1.40;;
15238;SDS011;7722;53.274;9.500;2023-03-12T07:34:28;1.70;;;1.70;;
15238;SDS011;7722;53.274;9.500;2023-03-12T07:36:56;1.53;;;1.53;;
15238;SDS011;7722;53.274;9.500;2023-03-12T07:39:24;1.70;;;1.70;;
15238;SDS011;7722;53.274;9.500;2023-03-12T07:41:51;1.63;;;1.63;;
15238;SDS011;7722;53.274;9.500;2023-03-12T07:44:18;1.60;;;1.60;;
15238;SDS011;7722;53.274;9.500;2023-03-12T07:46:45;1.37;;;1.37;;
15238;SDS011;7722;53.274;9.500;2023-03-12T07:49:12;1.50;;;1.50;;
15238;SDS011;7722;53.274;9.500;2023-03-12T07:51:39;1.50;;;1.50;;
15238;SDS011;7722;53.274;9.500;2023-03-12T07:54:08;1.70;;;1.70;;
15238;SDS011;7722;53.274;9.500;2023-03-12T07:56:35;1.30;;;1.30;;
15238;SDS011;7722;53.274;9.500;2023-03-12T07:59:02;1.20;;;1.20;;
15238;SDS011;7722;53.274;9.500;2023-03-12T08:01:29;1.20;;;1.20;;
15238;SDS011;7722;53.274;9.500;2023-03-12T08:03:57;1.30;;;1.30;;
15238;SDS011;7722;53.274;9.500;2023-03-12T08:06:24;1.10;;;1.10;;
15238;SDS011;7722;53.274;9.500;2023-03-12T08:08:51;1.10;;;1.10;;
15238;SDS011;7722;53.274;9.500;2023-03-12T08:11:20;1.20;;;1.20;;
15238;SDS011;7722;53.274;9.500;2023-03-12T08:13:47;1.30;;;1.30;;
15238;SDS011;7722;53.274;9.500;2023-03-12T08:16:14;1.20;;;1.20;;
15238;SDS011;7722;53.274;9.500;2023-03-12T08:18:42;1.30;;;1.30;;
15238;SDS011;7722;53.274;9.500;2023-03-12T08:21:09;1.07;;;1.07;;
15238;SDS011;7722;53.274;9.500;2023-03-12T08:23:38;1.30;;;1.30;;
15238;SDS011;7722;53.274;9.500;2023-03-12T08:26:05;1.20;;;1.20;;
15238;SDS011;7722;53.274;9.500;2023-03-12T08:28:34;1.30;;;1.30;;
15238;SDS011;7722;53.274;9.500;2023-03-12T08:31:01;1.20;;;1.20;;
15238;SDS011;7722;53.274;9.500;2023-03-12T08:33:28;1.40;;;1.40;;
15238;SDS011;7722;53.274;9.500;2023-03-12T08:35:55;1.40;;;1.40;;
15238;SDS011;7722;53.274;9.500;2023-03-12T08:38:22;1.20;;;1.20;;
15238;SDS011;7722;53.274;9.500;2023-03-12T08:40:53;1.30;;;1.30;;
15238;SDS011;7722;53.274;9.500;2023-03-12T08:43:22;1.30;;;1.30;;
15238;SDS011;7722;53.274;9.500;2023-03-12T08:45:53;1.20;;;1.20;;
15238;SDS011;7722;53.274;9.500;2023-03-12T08:48:20;1.33;;;1.33;;
15238;SDS011;7722;53.274;9.500;2023-03-12T08:50:47;1.17;;;1.17;;
15238;SDS011;7722;53.274;9.500;2023-03-12T08:53:14;1.03;;;1.03;;
15238;SDS011;7722;53.274;9.500;2023-03-12T08:55:41;1.10;;;1.10;;
15238;SDS011;7722;53.274;9.500;2023-03-12T08:58:09;1.17;;;1.17;;
15238;SDS011;7722;53.274;9.500;2023-03-12T09:00:36;1.10;;;1.10;;
15238;SDS011;7722;53.274;9.500;2023-03-12T09:03:05;1.00;;;1.00;;
15238;SDS011;7722;53.274;9.500;2023-03-12T09:05:32;1.20;;;1.20;;
15238;SDS011;7722;53.274;9.500;2023-03-12T09:07:59;3.73;;;3.57;;
15238;SDS011;7722;53.274;9.500;2023-03-12T09:10:26;1.20;;;1.20;;
15238;SDS011;7722;53.274;9.500;2023-03-12T09:12:53;1.10;;;1.10;;
15238;SDS011;7722;53.274;9.500;2023-03-12T09:15:20;0.90;;;0.90;;
15238;SDS011;7722;53.274;9.500;2023-03-12T09:17:47;0.90;;;0.90;;
15238;SDS011;7722;53.274;9.500;2023-03-12T09:20:16;1.03;;;1.03;;
15238;SDS011;7722;53.274;9.500;2023-03-12T09:22:43;1.07;;;1.07;;
15238;SDS011;7722;53.274;9.500;2023-03-12T09:25:10;0.93;;;0.93;;
15238;SDS011;7722;53.274;9.500;2023-03-12T09:27:38;1.20;;;1.20;;
15238;SDS011;7722;53.274;9.500;2023-03-12T09:30:07;0.87;;;0.87;;
15238;SDS011;7722;53.274;9.500;2023-03-12T09:32:36;1.10;;;1.10;;
15238;SDS011;7722;53.274;9.500;2023-03-12T09:35:03;1.00;;;1.00;;
15238;SDS011;7722;53.274;9.500;2023-03-12T09:37:32;0.90;;;0.90;;
15238;SDS011;7722;53.274;9.500;2023-03-12T09:40:00;1.20;;;1.20;;
15238;SDS011;7722;53.274;9.500;2023-03-12T09:42:29;0.77;;;0.77;;
15238;SDS011;7722;53.274;9.500;2023-03-12T09:45:03;1.07;;;1.07;;
15238;SDS011;7722;53.274;9.500;2023-03-12T09:47:32;1.00;;;1.00;;
15238;SDS011;7722;53.274;9.500;2023-03-12T09:50:03;0.87;;;0.87;;
15238;SDS011;7722;53.274;9.500;2023-03-12T09:52:35;0.80;;;0.80;;
15238;SDS011;7722;53.274;9.500;2023-03-12T09:55:10;1.40;;;1.40;;
15238;SDS011;7722;53.274;9.500;2023-03-12T09:57:40;0.87;;;0.87;;
15238;SDS011;7722;53.274;9.500;2023-03-12T10:00:10;0.90;;;0.90;;
15238;SDS011;7722;53.274;9.500;2023-03-12T10:02:45;1.03;;;1.03;;
15238;SDS011;7722;53.274;9.500;2023-03-12T10:05:30;1.27;;;1.27;;
15238;SDS011;7722;53.274;9.500;2023-03-12T10:08:05;0.90;;;0.90;;
15238;SDS011;7722;53.274;9.500;2023-03-12T10:10:45;1.00;;;1.00;;
15238;SDS011;7722;53.274;9.500;2023-03-12T10:13:24;0.93;;;0.93;;
15238;SDS011;7722;53.274;9.500;2023-03-12T10:16:05;0.90;;;0.90;;
15238;SDS011;7722;53.274;9.500;2023-03-12T10:18:44;11.00;;;3.93;;
15238;SDS011;7722;53.274;9.500;2023-03-12T10:21:23;1.03;;;1.03;;
15238;SDS011;7722;53.274;9.500;2023-03-12T10:24:03;1.00;;;1.00;;
15238;SDS011;7722;53.274;9.500;2023-03-12T10:26:39;0.87;;;0.87;;
15238;SDS011;7722;53.274;9.500;2023-03-12T10:29:10;0.70;;;0.70;;
15238;SDS011;7722;53.274;9.500;2023-03-12T10:31:44;0.90;;;0.90;;
15238;SDS011;7722;53.274;9.500;2023-03-12T10:34:20;0.90;;;0.90;;
15238;SDS011;7722;53.274;9.500;2023-03-12T10:36:52;1.03;;;1.03;;
15238;SDS011;7722;53.274;9.500;2023-03-12T10:39:25;1.07;;;1.07;;
15238;SDS011;7722;53.274;9.500;2023-03-12T10:41:52;0.80;;;0.80;;
15238;SDS011;7722;53.274;9.500;2023-03-12T10:44:21;0.87;;;0.87;;
15238;SDS011;7722;53.274;9.500;2023-03-12T10:46:52;1.00;;;1.00;;
15238;SDS011;7722;53.274;9.500;2023-03-12T10:49:33;0.83;;;0.83;;
15238;SDS011;7722;53.274;9.500;2023-03-12T10:52:04;0.70;;;0.70;;
15238;SDS011;7722;53.274;9.500;2023-03-12T10:54:37;0.77;;;0.77;;
15238;SDS011;7722;53.274;9.500;2023-03-12T10:57:05;0.90;;;0.90;;
15238;SDS011;7722;53.274;9.500;2023-03-12T10:59:33;0.80;;;0.80;;
15238;SDS011;7722;53.274;9.500;2023-03-12T11:02:10;1.17;;;1.17;;
15238;SDS011;7722;53.274;9.500;2023-03-12T11:04:56;1.00;;;1.00;;
15238;SDS011;7722;53.274;9.500;2023-03-12T11:07:25;0.80;;;0.80;;
15238;SDS011;7722;53.274;9.500;2023-03-12T11:10:15;0.70;;;0.70;;
15238;SDS011;7722;53.274;9.500;2023-03-12T11:12:54;0.60;;;0.60;;
15238;SDS011;7722;53.274;9.500;2023-03-12T11:15:27;0.70;;;0.70;;
15238;SDS011;7722;53.274;9.500;2023-03-12T11:18:17;0.97;;;0.97;;
15238;SDS011;7722;53.274;9.500;2023-03-12T11:20:50;0.80;;;0.80;;
15238;SDS011;7722;53.274;9.500;2023-03-12T11:23:21;1.00;;;1.00;;
15238;SDS011;7722;53.274;9.500;2023-03-12T11:25:51;0.90;;;0.90;;
15238;SDS011;7722;53.274;9.500;2023-03-12T11:28:23;1.57;;;1.57;;
15238;SDS011;7722;53.274;9.500;2023-03-12T11:30:53;0.83;;;0.83;;
15238;SDS011;7722;53.274;9.500;2023-03-12T11:33:23;0.93;;;0.93;;
15238;SDS011;7722;53.274;9.500;2023-03-12T11:35:54;1.00;;;1.00;;
15238;SDS011;7722;53.274;9.500;2023-03-12T11:38:32;1.00;;;1.00;;
15238;SDS011;7722;53.274;9.500;2023-03-12T11:41:09;0.90;;;0.90;;
15238;SDS011;7722;53.274;9.500;2023-03-12T11:43:52;1.00;;;1.00;;
15238;SDS011;7722;53.274;9.500;2023-03-12T11:46:34;1.07;;;1.07;;
15238;SDS011;7722;53.274;9.500;2023-03-12T11:49:13;1.00;;;1.00;;
15238;SDS011;7722;53.274;9.500;2023-03-12T11:51:51;1.00;;;1.00;;
15238;SDS011;7722;53.274;9.500;2023-03-12T11:54:29;0.90;;;0.90;;
15238;SDS011;7722;53.274;9.500;2023-03-12T11:57:14;1.10;;;1.10;;
15238;SDS011;7722;53.274;9.500;2023-03-12T11:59:53;0.63;;;0.63;;
15238;SDS011;7722;53.274;9.500;2023-03-12T12:02:42;0.87;;;0.87;;
15238;SDS011;7722;53.274;9.500;2023-03-12T12:05:25;0.80;;;0.80;;
15238;SDS011;7722;53.274;9.500;2023-03-12T12:11:09;0.80;;;0.80;;
15238;SDS011;7722;53.274;9.500;2023-03-12T12:13:47;0.93;;;0.93;;
15238;SDS011;7722;53.274;9.500;2023-03-12T12:16:27;0.70;;;0.70;;
15238;SDS011;7722;53.274;9.500;2023-03-12T12:19:07;0.70;;;0.70;;
15238;SDS011;7722;53.274;9.500;2023-03-12T12:21:46;0.80;;;0.80;;
15238;SDS011;7722;53.274;9.500;2023-03-12T12:24:31;0.83;;;0.83;;
15238;SDS011;7722;53.274;9.500;2023-03-12T12:27:07;0.80;;;0.80;;
15238;SDS011;7722;53.274;9.500;2023-03-12T12:29:53;0.83;;;0.83;;
15238;SDS011;7722;53.274;9.500;2023-03-12T12:32:31;0.90;;;0.90;;
15238;SDS011;7722;53.274;9.500;2023-03-12T12:35:12;0.80;;;0.80;;
15238;SDS011;7722;53.274;9.500;2023-03-12T12:37:47;0.93;;;0.93;;
15238;SDS011;7722;53.274;9.500;2023-03-12T12:40:22;1.00;;;1.00;;
15238;SDS011;7722;53.274;9.500;2023-03-12T12:42:56;0.90;;;0.90;;
15238;SDS011;7722;53.274;9.500;2023-03-12T12:45:30;0.80;;;0.80;;
15238;SDS011;7722;53.274;9.500;2023-03-12T12:47:59;0.90;;;0.90;;
15238;SDS011;7722;53.274;9.500;2023-03-12T12:50:31;0.70;;;0.70;;
15238;SDS011;7722;53.274;9.500;2023-03-12T12:53:04;1.00;;;1.00;;
15238;SDS011;7722;53.274;9.500;2023-03-12T12:55:39;1.10;;;1.10;;
15238;SDS011;7722;53.274;9.500;2023-03-12T12:58:12;0.97;;;0.97;;
15238;SDS011;7722;53.274;9.500;2023-03-12T13:00:46;1.07;;;1.07;;
15238;SDS011;7722;53.274;9.500;2023-03-12T13:03:15;1.00;;;1.00;;
15238;SDS011;7722;53.274;9.500;2023-03-12T13:05:45;0.87;;;0.87;;
15238;SDS011;7722;53.274;9.500;2023-03-12T13:08:32;0.97;;;0.97;;
15238;SDS011;7722;53.274;9.500;2023-03-12T13:11:03;1.00;;;1.00;;
15238;SDS011;7722;53.274;9.500;2023-03-12T13:13:31;0.67;;;0.67;;
15238;SDS011;7722;53.274;9.500;2023-03-12T13:16:19;0.70;;;0.70;;
15238;SDS011;7722;53.274;9.500;2023-03-12T13:18:57;0.80;;;0.80;;
15238;SDS011;7722;53.274;9.500;2023-03-12T13:21:28;1.00;;;1.00;;
15238;SDS011;7722;53.274;9.500;2023-03-12T13:24:10;1.10;;;1.10;;
15238;SDS011;7722;53.274;9.500;2023-03-12T13:26:51;1.03;;;1.03;;
15238;SDS011;7722;53.274;9.500;2023-03-12T13:29:22;1.17;;;1.17;;
15238;SDS011;7722;53.274;9.500;2023-03-12T13:32:04;2.83;;;2.60;;
15238;SDS011;7722;53.274;9.500;2023-03-12T13:34:44;1.00;;;1.00;;
15238;SDS011;7722;53.274;9.500;2023-03-12T13:43:39;1.10;;;1.10;;
15238;SDS011;7722;53.274;9.500;2023-03-12T13:49:08;1.20;;;1.20;;
15238;SDS011;7722;53.274;9.500;2023-03-12T13:51:54;2.10;;;2.10;;
15238;SDS011;7722;53.274;9.500;2023-03-12T13:54:28;0.90;;;0.90;;
15238;SDS011;7722;53.274;9.500;2023-03-12T13:57:01;1.03;;;1.03;;
15238;SDS011;7722;53.274;9.500;2023-03-12T13:59:29;1.20;;;1.20;;
15238;SDS011;7722;53.274;9.500;2023-03-12T14:02:02;1.00;;;1.00;;
15238;SDS011;7722;53.274;9.500;2023-03-12T14:04:37;1.20;;;1.20;;
15238;SDS011;7722;53.274;9.500;2023-03-12T14:07:17;1.00;;;1.00;;
15238;SDS011;7722;53.274;9.500;2023-03-12T14:10:10;1.37;;;1.37;;
15238;SDS011;7722;53.274;9.500;2023-03-12T14:12:45;1.20;;;1.20;;
15238;SDS011;7722;53.274;9.500;2023-03-12T14:15:20;1.10;;;1.10;;
15238;SDS011;7722;53.274;9.500;2023-03-12T14:17:55;1.07;;;1.07;;
15238;SDS011;7722;53.274;9.500;2023-03-12T14:20:26;1.00;;;1.00;;
15238;SDS011;7722;53.274;9.500;2023-03-12T14:22:56;1.23;;;1.23;;
15238;SDS011;7722;53.274;9.500;2023-03-12T14:25:33;1.10;;;1.10;;
15238;SDS011;7722;53.274;9.500;2023-03-12T14:28:02;0.97;;;0.97;;
15238;SDS011;7722;53.274;9.500;2023-03-12T14:30:38;1.10;;;1.10;;
15238;SDS011;7722;53.274;9.500;2023-03-12T14:33:09;1.00;;;1.00;;
15238;SDS011;7722;53.274;9.500;2023-03-12T14:35:42;1.30;;;1.30;;
15238;SDS011;7722;53.274;9.500;2023-03-12T14:38:14;1.20;;;1.20;;
15238;SDS011;7722;53.274;9.500;2023-03-12T14:40:44;1.00;;;1.00;;
15238;SDS011;7722;53.274;9.500;2023-03-12T14:43:24;1.07;;;1.07;;
15238;SDS011;7722;53.274;9.500;2023-03-12T14:45:56;1.20;;;1.20;;
15238;SDS011;7722;53.274;9.500;2023-03-12T14:48:26;1.30;;;1.30;;
15238;SDS011;7722;53.274;9.500;2023-03-12T14:50:56;1.10;;;1.10;;
15238;SDS011;7722;53.274;9.500;2023-03-12T14:53:25;1.00;;;1.00;;
15238;SDS011;7722;53.274;9.500;2023-03-12T14:56:03;1.20;;;1.20;;
15238;SDS011;7722;53.274;9.500;2023-03-12T14:58:32;1.30;;;1.30;;
15238;SDS011;7722;53.274;9.500;2023-03-12T15:01:01;1.10;;;1.10;;
15238;SDS011;7722;53.274;9.500;2023-03-12T15:03:29;1.10;;;1.10;;
15238;SDS011;7722;53.274;9.500;2023-03-12T15:06:03;1.17;;;1.17;;
15238;SDS011;7722;53.274;9.500;2023-03-12T15:08:31;1.27;;;1.27;;
15238;SDS011;7722;53.274;9.500;2023-03-12T15:11:04;1.10;;;1.10;;
15238;SDS011;7722;53.274;9.500;2023-03-12T15:13:32;1.30;;;1.30;;
15238;SDS011;7722;53.274;9.500;2023-03-12T15:16:03;1.10;;;1.10;;
15238;SDS011;7722;53.274;9.500;2023-03-12T15:18:32;1.20;;;1.20;;
15238;SDS011;7722;53.274;9.500;2023-03-12T15:21:00;1.17;;;1.17;;
15238;SDS011;7722;53.274;9.500;2023-03-12T15:23:31;1.20;;;1.20;;
15238;SDS011;7722;53.274;9.500;2023-03-12T15:26:10;1.20;;;1.20;;
15238;SDS011;7722;53.274;9.500;2023-03-12T15:28:39;1.20;;;1.20;;
15238;SDS011;7722;53.274;9.500;2023-03-12T15:31:08;1.00;;;1.00;;
15238;SDS011;7722;53.274;9.500;2023-03-12T15:33:38;1.10;;;1.10;;
15238;SDS011;7722;53.274;9.500;2023-03-12T15:36:17;1.30;;;1.30;;